createdAt,value
2018-09-03T00:01:40.224Z,63.90
2018-09-03T00:04:08.526Z,66.50
2018-09-03T00:06:36.794Z,64.40
2018-09-03T00:09:07.619Z,63.90
2018-09-03T00:11:35.885Z,63.80
2018-09-03T00:14:04.610Z,63.80
2018-09-03T00:16:32.904Z,63.70
2018-09-03T00:19:01.517Z,63.80
2018-09-03T00:21:29.812Z,64.00
2018-09-03T00:23:58.113Z,63.80
2018-09-03T00:26:26.394Z,64.00
2018-09-03T00:28:54.714Z,63.90
2018-09-03T00:31:28.256Z,64.00
2018-09-03T00:34:01.818Z,63.90
2018-09-03T00:37:34.012Z,64.00
2018-09-03T00:40:07.805Z,63.90
2018-09-03T00:42:41.581Z,63.90
2018-09-03T00:45:15.280Z,63.80
2018-09-03T00:47:43.608Z,63.90
2018-09-03T00:50:11.924Z,64.00
2018-09-03T00:52:40.238Z,63.80
2018-09-03T00:55:08.797Z,63.80
2018-09-03T00:57:37.376Z,66.90
2018-09-03T01:00:06.402Z,64.70
2018-09-03T01:02:34.678Z,64.20
2018-09-03T01:05:02.957Z,66.00
2018-09-03T01:07:31.220Z,64.10
2018-09-03T01:09:59.745Z,64.20
2018-09-03T01:12:28.053Z,64.10
2018-09-03T01:14:56.332Z,66.10
2018-09-03T01:17:24.599Z,64.30
2018-09-03T01:19:52.876Z,64.00
2018-09-03T01:22:21.448Z,64.00
2018-09-03T01:24:49.717Z,65.60
2018-09-03T01:27:18.000Z,64.60
2018-09-03T01:29:46.290Z,65.00
2018-09-03T01:32:14.564Z,64.30
2018-09-03T01:34:42.833Z,64.40
2018-09-03T01:37:11.122Z,64.80
2018-09-03T01:39:39.411Z,64.30
2018-09-03T01:42:07.687Z,64.20
2018-09-03T01:44:35.984Z,64.20
2018-09-03T01:47:04.360Z,64.00
2018-09-03T01:49:32.641Z,64.20
2018-09-03T01:52:01.148Z,64.80
2018-09-03T01:54:29.428Z,63.90
2018-09-03T01:56:57.731Z,64.10
2018-09-03T01:59:26.001Z,64.30
2018-09-03T02:01:54.294Z,64.40
2018-09-03T02:04:22.607Z,64.10
2018-09-03T02:06:50.908Z,64.10
2018-09-03T02:09:19.188Z,64.30
2018-09-03T02:11:47.473Z,63.90
2018-09-03T02:14:15.740Z,64.10
2018-09-03T02:16:44.032Z,66.20
2018-09-03T02:19:12.327Z,64.90
2018-09-03T02:21:40.579Z,64.50
2018-09-03T02:24:08.884Z,64.30
2018-09-03T02:26:37.158Z,64.40
2018-09-03T02:29:05.452Z,64.30
2018-09-03T02:31:33.760Z,64.20
2018-09-03T02:34:02.413Z,64.30
2018-09-03T02:36:30.700Z,64.10
2018-09-03T02:38:59.009Z,64.10
2018-09-03T02:41:27.311Z,64.10
2018-09-03T02:43:55.570Z,64.00
2018-09-03T02:46:23.893Z,64.10
2018-09-03T02:48:52.152Z,64.00
2018-09-03T02:51:20.392Z,64.20
2018-09-03T02:53:48.681Z,64.00
2018-09-03T02:56:16.996Z,64.00
2018-09-03T02:58:45.315Z,64.10
2018-09-03T03:01:13.596Z,63.90
2018-09-03T03:03:41.891Z,64.10
2018-09-03T03:06:10.584Z,64.10
2018-09-03T03:08:38.889Z,63.90
2018-09-03T03:11:07.196Z,64.00
2018-09-03T03:13:35.472Z,64.20
2018-09-03T03:16:03.781Z,64.20
2018-09-03T03:18:32.040Z,64.10
2018-09-03T03:21:00.324Z,64.20
2018-09-03T03:23:28.579Z,64.00
2018-09-03T03:25:56.872Z,64.10
2018-09-03T03:28:25.136Z,64.10
2018-09-03T03:30:53.449Z,64.60
2018-09-03T03:33:21.714Z,64.20
2018-09-03T03:35:50.015Z,64.10
2018-09-03T03:38:18.290Z,64.30
2018-09-03T03:40:46.572Z,64.20
2018-09-03T03:43:14.871Z,64.10
2018-09-03T03:45:43.186Z,64.80
2018-09-03T03:48:11.486Z,64.40
2018-09-03T03:50:39.748Z,64.20
2018-09-03T03:53:08.085Z,64.20
2018-09-03T03:55:36.351Z,64.20
2018-09-03T03:58:04.615Z,64.10
2018-09-03T04:00:32.884Z,64.20
2018-09-03T04:03:01.128Z,64.10
2018-09-03T04:05:29.433Z,64.00
2018-09-03T04:07:57.722Z,66.10
2018-09-03T04:10:26.000Z,64.40
2018-09-03T04:12:57.757Z,64.10
2018-09-03T04:15:26.032Z,64.30
2018-09-03T04:17:54.724Z,64.20
2018-09-03T04:20:23.037Z,64.10
2018-09-03T04:22:51.355Z,64.20
2018-09-03T04:25:19.577Z,64.10
2018-09-03T04:27:47.893Z,64.30
2018-09-03T04:30:16.193Z,64.10
2018-09-03T04:32:44.493Z,64.10
2018-09-03T04:35:12.912Z,64.00
2018-09-03T04:37:41.190Z,64.30
2018-09-03T04:40:09.957Z,64.20
2018-09-03T04:42:38.304Z,64.10
2018-09-03T04:45:06.577Z,64.00
2018-09-03T04:47:34.938Z,64.10
2018-09-03T04:50:03.246Z,64.10
2018-09-03T04:52:31.549Z,64.20
2018-09-03T04:54:59.808Z,64.20
2018-09-03T04:57:28.095Z,64.10
2018-09-03T04:59:56.747Z,64.10
2018-09-03T05:02:25.030Z,64.10
2018-09-03T05:04:53.365Z,64.10
2018-09-03T05:07:21.600Z,64.00
2018-09-03T05:09:49.906Z,64.10
2018-09-03T05:12:18.209Z,64.00
2018-09-03T05:14:46.480Z,64.10
2018-09-03T05:17:14.745Z,64.00
2018-09-03T05:19:42.978Z,64.10
2018-09-03T05:22:11.279Z,64.20
2018-09-03T05:24:39.540Z,64.10
2018-09-03T05:27:07.836Z,64.00
2018-09-03T05:29:36.126Z,64.10
2018-09-03T05:32:04.416Z,64.00
2018-09-03T05:34:32.704Z,64.10
2018-09-03T05:37:00.982Z,64.10
2018-09-03T05:39:29.259Z,64.00
2018-09-03T05:41:57.752Z,64.10
2018-09-03T05:44:26.017Z,64.10
2018-09-03T05:46:54.294Z,64.00
2018-09-03T05:49:22.556Z,64.00
2018-09-03T05:51:50.810Z,63.90
2018-09-03T05:54:19.081Z,64.00
2018-09-03T05:56:47.348Z,63.80
2018-09-03T05:59:15.741Z,63.90
2018-09-03T06:01:43.885Z,63.80
2018-09-03T06:04:12.172Z,63.70
2018-09-03T06:06:40.688Z,63.70
2018-09-03T06:09:10.876Z,63.80
2018-09-03T06:11:39.159Z,63.80
2018-09-03T06:14:07.549Z,63.70
2018-09-03T06:16:35.877Z,63.80
2018-09-03T06:19:04.141Z,63.70
2018-09-03T06:21:32.462Z,67.50
2018-09-03T06:24:00.978Z,64.10
2018-09-03T06:26:29.283Z,64.00
2018-09-03T06:28:57.524Z,63.80
2018-09-03T06:31:25.814Z,63.70
2018-09-03T06:33:54.054Z,66.00
2018-09-03T06:36:22.355Z,63.90
2018-09-03T06:38:50.651Z,63.90
2018-09-03T06:41:18.906Z,63.70
2018-09-03T06:43:47.328Z,63.70
2018-09-03T06:46:15.624Z,63.60
2018-09-03T06:48:43.909Z,63.50
2018-09-03T06:51:12.204Z,63.50
2018-09-03T06:53:40.515Z,63.50
2018-09-03T06:56:08.772Z,63.60
2018-09-03T06:58:37.089Z,63.40
2018-09-03T07:01:05.626Z,63.30
2018-09-03T07:03:33.874Z,65.30
2018-09-03T07:06:02.266Z,64.50
2018-09-03T07:08:30.546Z,64.30
2018-09-03T07:10:58.809Z,64.40
2018-09-03T07:13:27.080Z,64.50
2018-09-03T07:15:55.344Z,63.70
2018-09-03T07:18:23.608Z,63.50
2018-09-03T07:20:51.928Z,63.70
2018-09-03T07:23:20.189Z,67.20
2018-09-03T07:25:48.439Z,63.70
2018-09-03T07:28:16.730Z,64.60
2018-09-03T07:30:45.025Z,63.60
2018-09-03T07:33:13.492Z,63.50
2018-09-03T07:35:41.849Z,65.40
2018-09-03T07:38:10.046Z,64.00
2018-09-03T07:40:38.388Z,65.80
2018-09-03T07:43:06.690Z,64.30
2018-09-03T07:45:34.965Z,63.90
2018-09-03T07:48:03.457Z,64.70
2018-09-03T07:50:31.749Z,63.70
2018-09-03T07:53:00.012Z,64.20
2018-09-03T07:55:28.276Z,63.50
2018-09-03T07:57:56.556Z,63.40
2018-09-03T08:00:24.831Z,65.50
2018-09-03T08:02:53.136Z,70.60
2018-09-03T08:05:21.425Z,64.10
2018-09-03T08:07:49.677Z,68.40
2018-09-03T08:10:17.933Z,67.90
2018-09-03T08:12:46.286Z,65.90
2018-09-03T08:15:14.484Z,67.00
2018-09-03T08:17:42.773Z,64.50
2018-09-03T08:20:11.131Z,64.20
2018-09-03T08:22:39.326Z,64.00
2018-09-03T08:25:07.633Z,67.80
2018-09-03T08:27:35.888Z,67.10
2018-09-03T08:30:04.647Z,65.90
2018-09-03T08:32:32.867Z,66.60
2018-09-03T08:35:01.137Z,69.00
2018-09-03T08:37:29.397Z,65.40
2018-09-03T08:39:57.721Z,64.60
2018-09-03T08:42:25.959Z,66.10
2018-09-03T08:44:54.243Z,64.70
2018-09-03T08:47:22.484Z,64.20
2018-09-03T08:49:51.051Z,66.60
2018-09-03T08:52:19.345Z,63.90
2018-09-03T08:54:47.628Z,64.00
2018-09-03T08:57:15.907Z,65.20
2018-09-03T08:59:44.202Z,64.30
2018-09-03T09:02:12.460Z,64.40
2018-09-03T09:04:40.744Z,64.00
2018-09-03T09:07:09.042Z,65.00
2018-09-03T09:09:37.356Z,64.50
2018-09-03T09:12:05.661Z,66.10
2018-09-03T09:14:33.944Z,65.60
2018-09-03T09:17:02.222Z,64.10
2018-09-03T09:19:30.508Z,64.30
2018-09-03T09:21:58.792Z,63.90
2018-09-03T09:24:27.266Z,64.20
2018-09-03T09:26:55.504Z,66.60
2018-09-03T09:29:23.780Z,63.90
2018-09-03T09:31:52.027Z,65.30
2018-09-03T09:34:20.289Z,64.30
2018-09-03T09:36:48.579Z,64.40
2018-09-03T09:39:16.858Z,65.50
2018-09-03T09:41:45.117Z,63.90
2018-09-03T09:44:13.396Z,65.10
2018-09-03T09:46:41.672Z,65.40
2018-09-03T09:49:10.310Z,63.90
2018-09-03T09:51:38.545Z,63.90
2018-09-03T09:54:06.812Z,63.80
2018-09-03T09:56:35.129Z,63.50
2018-09-03T09:59:03.405Z,63.50
2018-09-03T10:01:36.395Z,67.10
2018-09-03T10:04:04.988Z,66.50
2018-09-03T10:06:33.265Z,67.80
2018-09-03T10:09:01.563Z,68.10
2018-09-03T10:11:30.056Z,66.10
2018-09-03T10:13:58.680Z,65.10
2018-09-03T10:16:26.979Z,64.50
2018-09-03T10:18:55.234Z,64.40
2018-09-03T10:21:23.572Z,67.60
2018-09-03T10:23:51.859Z,65.90
2018-09-03T10:26:20.164Z,64.10
2018-09-03T10:28:48.397Z,66.00
2018-09-03T10:31:16.692Z,65.50
2018-09-03T10:33:44.980Z,66.60
2018-09-03T10:36:13.254Z,68.10
2018-09-03T10:38:41.521Z,67.00
2018-09-03T10:41:09.805Z,65.40
2018-09-03T10:43:38.065Z,65.70
2018-09-03T10:46:06.541Z,64.40
2018-09-03T10:48:34.820Z,63.70
2018-09-03T10:51:03.105Z,66.00
2018-09-03T10:53:31.396Z,64.30
2018-09-03T10:55:59.658Z,63.60
2018-09-03T10:58:27.909Z,64.60
2018-09-03T11:00:56.179Z,66.40
2018-09-03T11:03:24.797Z,67.30
2018-09-03T11:05:53.070Z,66.50
2018-09-03T11:08:21.368Z,67.50
2018-09-03T11:10:49.669Z,65.70
2018-09-03T11:13:17.944Z,66.40
2018-09-03T11:15:46.264Z,67.30
2018-09-03T11:18:14.521Z,69.00
2018-09-03T11:20:42.784Z,68.50
2018-09-03T11:23:11.074Z,64.70
2018-09-03T11:25:39.345Z,66.90
2018-09-03T11:28:07.633Z,64.50
2018-09-03T11:30:35.900Z,64.80
2018-09-03T11:33:04.189Z,64.20
2018-09-03T11:35:32.472Z,64.00
2018-09-03T11:38:00.752Z,64.40
2018-09-03T11:40:29.952Z,65.30
2018-09-03T11:42:58.209Z,67.60
2018-09-03T11:45:26.517Z,64.50
2018-09-03T11:47:54.769Z,63.80
2018-09-03T11:50:23.026Z,64.10
2018-09-03T11:52:51.316Z,64.30
2018-09-03T11:55:19.627Z,65.20
2018-09-03T11:57:48.217Z,66.30
2018-09-03T12:00:24.799Z,65.00
2018-09-03T12:02:53.046Z,64.10
2018-09-03T12:05:21.337Z,64.90
2018-09-03T12:07:49.639Z,63.90
2018-09-03T12:10:17.938Z,65.50
2018-09-03T12:12:46.207Z,64.50
2018-09-03T12:16:17.220Z,67.60
2018-09-03T12:18:45.865Z,66.20
2018-09-03T12:21:14.753Z,64.10
2018-09-03T12:23:43.752Z,64.10
2018-09-03T12:26:12.226Z,64.70
2018-09-03T12:28:40.550Z,63.60
2018-09-03T12:31:09.263Z,65.40
2018-09-03T12:33:37.584Z,64.90
2018-09-03T12:36:06.309Z,63.60
2018-09-03T12:38:34.986Z,64.60
2018-09-03T12:41:03.467Z,63.60
2018-09-03T12:43:31.784Z,64.80
2018-09-03T12:46:01.430Z,68.90
2018-09-03T12:48:30.655Z,65.50
2018-09-03T12:50:59.645Z,66.80
2018-09-03T12:53:28.247Z,66.00
2018-09-03T12:55:56.545Z,63.80
2018-09-03T12:58:24.816Z,65.80
2018-09-03T13:00:53.142Z,63.50
2018-09-03T13:03:21.373Z,64.80
2018-09-03T13:05:49.826Z,66.40
2018-09-03T13:08:18.097Z,65.00
2018-09-03T13:10:46.562Z,64.00
2018-09-03T13:13:14.860Z,64.90
2018-09-03T13:15:43.118Z,63.40
2018-09-03T13:18:11.401Z,67.10
2018-09-03T13:20:39.688Z,64.00
2018-09-03T13:23:07.950Z,64.10
2018-09-03T13:25:36.228Z,63.80
2018-09-03T13:28:04.542Z,63.10
2018-09-03T13:30:32.905Z,63.00
2018-09-03T13:33:01.104Z,63.30
2018-09-03T13:35:29.387Z,63.30
2018-09-03T13:37:57.673Z,63.60
2018-09-03T13:40:25.955Z,63.20
2018-09-03T13:42:54.233Z,62.60
2018-09-03T13:45:22.493Z,64.40
2018-09-03T13:47:50.778Z,63.30
2018-09-03T13:50:19.068Z,63.30
2018-09-03T13:52:47.320Z,62.50
2018-09-03T13:55:15.609Z,63.30
2018-09-03T13:57:43.922Z,62.60
2018-09-03T14:00:12.957Z,62.80
2018-09-03T14:02:41.429Z,64.20
2018-09-03T14:05:09.740Z,65.80
2018-09-03T14:07:37.998Z,63.00
2018-09-03T14:10:06.405Z,62.20
2018-09-03T14:12:34.632Z,62.90
2018-09-03T14:15:02.968Z,62.10
2018-09-03T14:17:31.272Z,62.30
2018-09-03T14:19:59.660Z,63.90
2018-09-03T14:22:28.262Z,63.20
2018-09-03T14:24:56.449Z,62.50
2018-09-03T14:27:24.793Z,62.20
2018-09-03T14:29:53.113Z,61.90
2018-09-03T14:32:21.410Z,61.90
2018-09-03T14:34:49.671Z,61.50
2018-09-03T14:37:17.927Z,64.20
2018-09-03T14:39:46.221Z,62.50
2018-09-03T14:42:14.532Z,61.80
2018-09-03T14:44:42.804Z,61.70
2018-09-03T14:47:11.142Z,61.50
2018-09-03T14:49:39.432Z,61.70
2018-09-03T14:52:07.657Z,61.90
2018-09-03T14:54:35.955Z,63.10
2018-09-03T14:57:04.284Z,62.40
2018-09-03T14:59:32.577Z,61.90
2018-09-03T15:02:00.891Z,61.80
2018-09-03T15:04:29.156Z,63.30
2018-09-03T15:06:57.469Z,61.60
2018-09-03T15:09:25.756Z,61.50
2018-09-03T15:11:54.209Z,62.10
2018-09-03T15:14:22.460Z,62.20
2018-09-03T15:16:50.760Z,62.70
2018-09-03T15:19:19.011Z,62.30
2018-09-03T15:21:47.300Z,62.40
2018-09-03T15:24:15.559Z,61.60
2018-09-03T15:26:43.922Z,61.60
2018-09-03T15:29:12.144Z,61.50
2018-09-03T15:31:40.384Z,61.40
2018-09-03T15:34:08.702Z,61.30
2018-09-03T15:36:37.046Z,61.30
2018-09-03T15:39:11.715Z,61.30
2018-09-03T15:41:39.990Z,61.20
2018-09-03T15:44:08.289Z,61.30
2018-09-03T15:46:36.635Z,62.20
2018-09-03T15:49:04.980Z,61.50
2018-09-03T15:51:33.231Z,61.70
2018-09-03T15:54:01.710Z,61.40
2018-09-03T15:56:29.973Z,63.70
2018-09-03T15:58:58.244Z,61.70
2018-09-03T16:01:26.537Z,62.50
2018-09-03T16:03:55.104Z,62.20
2018-09-03T16:06:23.344Z,63.30
2018-09-03T16:08:51.672Z,62.80
2018-09-03T16:11:19.987Z,64.20
2018-09-03T16:13:48.250Z,63.00
2018-09-03T16:16:16.548Z,62.30
2018-09-03T16:18:45.121Z,62.10
2018-09-03T16:21:13.426Z,62.90
2018-09-03T16:23:41.683Z,62.10
2018-09-03T16:26:09.957Z,61.80
2018-09-03T16:28:38.249Z,61.70
2018-09-03T16:31:06.499Z,61.60
2018-09-03T16:33:34.783Z,61.60
2018-09-03T16:36:03.207Z,61.80
2018-09-03T16:38:31.403Z,61.70
2018-09-03T16:41:00.004Z,61.70
2018-09-03T16:43:28.269Z,61.60
2018-09-03T16:45:56.562Z,61.60
2018-09-03T16:48:24.841Z,61.60
2018-09-03T16:50:53.107Z,61.60
2018-09-03T16:53:21.543Z,61.50
2018-09-03T16:55:49.825Z,62.50
2018-09-03T16:58:18.101Z,61.80
2018-09-03T17:00:46.361Z,61.80
2018-09-03T17:03:14.657Z,61.80
2018-09-03T17:05:42.943Z,61.80
2018-09-03T17:08:11.698Z,61.80
2018-09-03T17:10:39.854Z,62.40
2018-09-03T17:13:08.130Z,61.80
2018-09-03T17:15:36.435Z,62.10
2018-09-03T17:18:04.717Z,62.90
2018-09-03T17:20:33.064Z,62.10
2018-09-03T17:23:01.213Z,62.10
2018-09-03T17:25:29.507Z,62.10
2018-09-03T17:27:57.780Z,62.10
2018-09-03T17:30:26.100Z,62.00
2018-09-03T17:32:54.409Z,62.00
2018-09-03T17:35:22.665Z,62.10
2018-09-03T17:37:50.900Z,62.00
2018-09-03T17:40:19.180Z,62.10
2018-09-03T17:42:47.473Z,62.20
2018-09-03T17:45:15.760Z,62.20
2018-09-03T17:47:44.025Z,62.30
2018-09-03T17:50:12.306Z,63.10
2018-09-03T17:52:40.573Z,62.30
2018-09-03T17:55:09.926Z,62.30
2018-09-03T17:57:38.197Z,62.40
2018-09-03T18:00:06.517Z,62.40
2018-09-03T18:02:34.766Z,62.50
2018-09-03T18:05:03.037Z,62.30
2018-09-03T18:07:31.309Z,62.50
2018-09-03T18:09:59.579Z,62.50
2018-09-03T18:12:27.852Z,62.50
2018-09-03T18:14:56.132Z,62.60
2018-09-03T18:17:24.422Z,62.60
2018-09-03T18:19:52.676Z,62.60
2018-09-03T18:22:20.974Z,62.60
2018-09-03T18:24:49.473Z,62.70
2018-09-03T18:27:17.776Z,62.70
2018-09-03T18:29:46.060Z,62.70
2018-09-03T18:32:14.337Z,62.80
2018-09-03T18:34:42.620Z,62.80
2018-09-03T18:37:10.971Z,62.90
2018-09-03T18:39:39.152Z,63.00
2018-09-03T18:42:07.401Z,63.00
2018-09-03T18:44:35.685Z,63.80
2018-09-03T18:47:03.962Z,63.00
2018-09-03T18:49:32.231Z,63.10
2018-09-03T18:52:00.475Z,63.10
2018-09-03T18:54:28.744Z,63.10
2018-09-03T18:56:57.056Z,63.20
2018-09-03T18:59:25.316Z,63.20
2018-09-03T19:01:53.590Z,63.20
2018-09-03T19:04:21.889Z,63.30
2018-09-03T19:06:50.157Z,63.30
2018-09-03T19:09:18.421Z,63.40
2018-09-03T19:11:46.713Z,63.50
2018-09-03T19:14:14.964Z,63.50
2018-09-03T19:16:43.233Z,63.60
2018-09-03T19:19:11.483Z,63.60
2018-09-03T19:21:39.753Z,63.60
2018-09-03T19:24:08.252Z,63.60
2018-09-03T19:26:36.785Z,63.70
2018-09-03T19:29:05.062Z,63.80
2018-09-03T19:31:33.323Z,63.90
2018-09-03T19:34:01.585Z,63.80
2018-09-03T19:36:29.913Z,63.90
2018-09-03T19:38:58.185Z,63.90
2018-09-03T19:41:26.453Z,64.00
2018-09-03T19:43:54.733Z,64.00
2018-09-03T19:46:22.994Z,63.90
2018-09-03T19:48:51.416Z,63.70
2018-09-03T19:51:19.673Z,63.90
2018-09-03T19:53:47.974Z,63.80
2018-09-03T19:56:16.293Z,63.80
2018-09-03T19:58:44.576Z,63.90
2018-09-03T20:01:13.113Z,63.90
2018-09-03T20:03:41.365Z,63.90
2018-09-03T20:06:09.647Z,63.90
2018-09-03T20:08:37.905Z,63.90
2018-09-03T20:11:06.145Z,63.90
2018-09-03T20:13:34.477Z,63.80
2018-09-03T20:16:02.709Z,63.80
2018-09-03T20:18:30.986Z,63.80
2018-09-03T20:20:59.271Z,64.60
2018-09-03T20:23:27.638Z,63.80
2018-09-03T20:25:55.918Z,63.90
2018-09-03T20:28:24.182Z,64.00
2018-09-03T20:30:52.426Z,64.00
2018-09-03T20:33:20.697Z,64.00
2018-09-03T20:35:48.965Z,64.00
2018-09-03T20:38:17.273Z,64.00
2018-09-03T20:40:45.522Z,64.00
2018-09-03T20:43:13.790Z,64.10
2018-09-03T20:45:42.044Z,64.00
2018-09-03T20:48:10.313Z,64.00
2018-09-03T20:50:38.615Z,64.10
2018-09-03T20:53:06.904Z,64.00
2018-09-03T20:55:35.185Z,64.10
2018-09-03T20:58:03.413Z,64.10
2018-09-03T21:00:31.703Z,64.10
2018-09-03T21:02:59.978Z,64.00
2018-09-03T21:05:28.236Z,64.00
2018-09-03T21:07:56.524Z,64.00
2018-09-03T21:10:24.797Z,64.00
2018-09-03T21:12:53.110Z,64.00
2018-09-03T21:15:21.368Z,64.10
2018-09-03T21:17:56.518Z,64.00
2018-09-03T21:20:24.785Z,63.90
2018-09-03T21:22:53.068Z,63.90
2018-09-03T21:25:21.369Z,64.70
2018-09-03T21:27:49.660Z,64.00
2018-09-03T21:30:17.928Z,64.00
2018-09-03T21:32:46.227Z,64.00
2018-09-03T21:35:14.496Z,64.00
2018-09-03T21:37:42.786Z,63.80
2018-09-03T21:40:11.051Z,63.80
2018-09-03T21:42:39.329Z,63.80
2018-09-03T21:45:07.605Z,63.80
2018-09-03T21:47:35.876Z,63.80
2018-09-03T21:50:04.184Z,63.90
2018-09-03T21:52:32.460Z,63.90
2018-09-03T21:55:00.749Z,63.80
2018-09-03T21:57:29.152Z,63.70
2018-09-03T21:59:57.430Z,63.80
2018-09-03T22:02:25.684Z,63.70
2018-09-03T22:04:53.937Z,63.80
2018-09-03T22:07:22.320Z,63.80
2018-09-03T22:09:50.560Z,63.80
2018-09-03T22:12:18.832Z,63.70
2018-09-03T22:14:47.096Z,63.80
2018-09-03T22:17:15.357Z,63.70
2018-09-03T22:19:43.632Z,63.60
2018-09-03T22:22:11.925Z,63.70
2018-09-03T22:24:40.217Z,63.60
2018-09-03T22:27:08.473Z,63.60
2018-09-03T22:29:36.736Z,63.60
2018-09-03T22:32:05.175Z,63.60
2018-09-03T22:34:33.405Z,63.60
2018-09-03T22:37:01.677Z,63.60
2018-09-03T22:39:29.936Z,63.50
2018-09-03T22:41:58.216Z,63.50
2018-09-03T22:44:26.506Z,63.50
2018-09-03T22:46:54.772Z,63.50
2018-09-03T22:49:23.012Z,63.50
2018-09-03T22:51:51.293Z,63.50
2018-09-03T22:54:20.285Z,63.50
2018-09-03T22:56:48.540Z,63.40
2018-09-03T22:59:16.811Z,63.40
2018-09-03T23:01:45.082Z,63.50
2018-09-03T23:04:13.341Z,64.10
2018-09-03T23:06:41.604Z,63.40
2018-09-03T23:09:09.828Z,63.40
2018-09-03T23:11:38.134Z,63.50
2018-09-03T23:14:06.756Z,64.10
2018-09-03T23:16:35.041Z,63.30
2018-09-03T23:19:03.321Z,63.20
2018-09-03T23:21:31.787Z,63.20
2018-09-03T23:24:00.052Z,63.30
2018-09-03T23:26:28.327Z,63.30
2018-09-03T23:28:56.627Z,63.30
2018-09-03T23:31:24.868Z,63.30
2018-09-03T23:33:53.199Z,63.20
2018-09-03T23:36:21.457Z,63.30
2018-09-03T23:38:49.712Z,63.20
2018-09-03T23:41:17.976Z,63.30
2018-09-03T23:43:46.236Z,63.30
2018-09-03T23:46:14.509Z,63.30
2018-09-03T23:48:42.760Z,63.30
2018-09-03T23:51:11.041Z,63.30
2018-09-03T23:53:39.340Z,63.40
2018-09-03T23:58:58.608Z,63.40
